الصفحة الرئيسية
METAR-TAF:

METAR-TAF

مطار :

Miho-Yonago, اليابان

دائرة عرض: 35-29N, خط طول: 133-15E, ارتفاع: 6 متر

مراقبة الطقس الحالي

تاريخ ووقت الإصدار 19 دقيقة قبل الساعة 04:00UTC
ريح 4 عقدة من الشرق/الشمال الشرقي
درجة الحرارة 26°درجة مئوية
الرطوبة 65%
ضغط 1008 hPa
الرؤية 10 كم أو أكثر
غيوم قليلة على ارتفاع 18000 قدم
غيوم مفككة على ارتفاع 25000 قدم

METAR: RJOH 170400Z 06004KT 9999 FEW180 BKN250 26/19 Q1008

زمن: 13:19 (04:19 UTC)

توقعات

تاريخ ووقت الإصدار 5ساعات و 14 دقيقة قبل الساعة 23:05UTC
التوقعات صالحة من17 الساعة 00 UTC إلى 18 الساعة 06 UTC
ريح 6 عقدة من الجنوب الغربي
الرؤية 10 كم أو أكثر
غيوم قليلة على ارتفاع 3000 قدم
أصبح
من 17 الساعة 01 UTC إلى 17 الساعة 03 UTC
ريح 7 عقدة من الشمال الشرقي
أصبح
من 17 الساعة 12 UTC إلى 17 الساعة 15 UTC
ريح 6 عقدة من الجنوب
أصبح
من 17 الساعة 21 UTC إلى 18 الساعة 00 UTC
ريح 6 عقدة من الشرق/الشمال الشرقي

TAF: RJOH 162305Z 1700/1806 23006KT 9999 FEW030 BECMG 1701/1703 05007KT BECMG 1712/1715 18006KT BECMG 1721/1800 07006KT

أرصاد الطقس والتوقعات من أكثر من 4000 مطار (تقارير الطقس للمطار METAR والتنبؤ بالطقس بالمطارTAF).

المحطات المتاحة هي النقط الصفراء والحمراء على الخريطة.

حرك المؤشر فوق النقطة لمعرفة اسم المحطة.

ثم انقر لمعرفة أرصاد وتوقعات الطقس.

لتغيير الخارطة: اضغط على الأزرار الخضراء مع رمز الصليب الأسود للتكبير. على الزر الأخضر مع شرطة للتصغير، أو على الأسهم الخضراء للخرائط المجاورة.


METAR-TAF: